Weather in selectable METAR weather stations Station search

1) Select the Continent / Group:

[Europe]  [Asia]  [Africa]  [North America]  [South America]  
[Central America and Caribbean]  [Oceania]  [Antarctica]  
2) Select the Weather station (City):


METAR = YBAS 190200Z AUTO 33013KT 9999 // NCD 38/07 Q1014

STATIONYBAS
NAMEAlice Springs Arpt, NT, AU
OBSERVED19.10.2021 11:30 (19.10.2021 02:00 UTC), 24 min ago
TEMPERATURE38.0°C (100°F)
WINDNNW (330 degrees) at 15 MPH (13 knots; 6.7 m/s)
HUMIDITY15%
PRESSURE1013.9 hPa
Click here to search the weather station or to give the station identifier
(four-character ICAO Location Indicator) for weather data.